Latest Weather Observations for Varanus Island

IDW60801

Issued at 5:34 pm WST Sunday 24 January 2021 (issued every 10 minutes, with the page automatically refreshed every 10 minutes)

About weather observations | Map of weather stations | Latest weather observations for WA | Other Formats
Station Details ID: 200100 Name: VARANUS ISLAND Lat: -20.66 Lon: 115.58 Height: 24.0 m
Data from the previous 72 hours. | See also: Recent months at Varanus Island
Date/Time
WST
Temp
°C
App
Temp
°C
Dew
Point
°C
Rel
Hum
%
Delta-T
°C
Wind Press
QNH
hPa
Press
MSL
hPa
Rain since
9am
mm
Dir  Spd
km/h
Gust
km/h
Spd
kts
Gust
kts
24/05:30pm 29.9 27.5 22.6 65 5.0 W 39 48 21 26 1005.1 - 0.0
24/05:00pm 30.0 27.2 21.7 61 5.6 W 39 46 21 25 1005.1 - 0.0
24/04:00pm 31.0 28.4 20.6 54 6.9 WSW 35 44 19 24 1005.8 - 0.0
24/03:30pm 30.5 27.4 18.9 50 7.5 SW 33 41 18 22 1006.0 - 0.0
24/03:00pm 30.3 28.4 21.4 59 6.0 SSW 33 41 18 22 1006.1 1005.9 0.0
24/02:30pm 29.5 26.5 20.6 58 5.9 SSW 37 44 20 24 1006.3 - 0.0
24/02:00pm 30.0 28.3 22.4 63 5.2 SSW 35 43 19 23 1006.8 - 0.0
24/01:30pm 29.3 26.7 21.5 63 5.2 SSW 37 44 20 24 1007.0 - 0.0
24/01:00pm 29.4 27.7 22.4 66 4.8 SSW 35 43 19 23 1007.5 - 0.0
24/12:30pm 29.4 27.8 22.6 67 4.6 SSW 35 43 19 23 1008.0 - 0.0
24/12:00pm 28.5 27.0 22.0 68 4.4 SSW 33 43 18 23 1008.1 1007.9 0.0
24/11:30am 28.1 25.7 21.9 69 4.2 SSW 37 43 20 23 1008.4 - 0.0
24/11:00am 28.3 26.2 22.3 70 4.1 SSW 37 46 20 25 1008.6 - 0.0
24/10:30am 27.6 25.4 21.4 69 4.1 SSW 35 43 19 23 1008.6 - 0.0
24/10:00am 27.4 25.4 21.9 72 3.7 SSW 35 44 19 24 1008.7 - 0.0
24/09:30am 27.1 25.1 21.8 73 3.5 SSW 35 41 19 22 1008.7 - 0.0
24/09:00am 27.0 24.3 22.0 74 3.4 SW 39 46 21 25 1008.5 1008.3 0.0
24/08:30am 27.0 24.4 22.2 75 3.2 SW 39 46 21 25 1008.2 - 0.0
24/08:00am 26.9 24.1 22.5 77 3.0 SW 41 48 22 26 1007.9 - 0.0
24/07:30am 27.0 24.3 22.6 77 3.0 SW 41 46 22 25 1007.6 - 0.0
24/07:00am 26.9 25.0 22.7 78 2.8 SW 37 44 20 24 1007.3 - 0.0
24/06:30am 27.0 24.5 22.4 76 3.1 WSW 39 46 21 25 1006.6 - 0.0
24/06:00am 26.9 23.9 22.1 75 3.2 WSW 41 46 22 25 1006.1 1005.9 0.0
24/05:30am 27.4 25.0 23.2 78 2.9 WSW 41 46 22 25 1005.9 - 0.0
24/05:00am 27.2 25.1 23.0 78 2.9 WSW 39 44 21 24 1005.8 - 0.0
24/04:30am 27.2 24.4 22.4 75 3.2 WSW 41 46 22 25 1005.6 - 0.0
24/04:00am 27.5 25.6 23.5 79 2.7 WSW 39 44 21 24 1005.5 - 0.0
24/03:30am 27.5 26.0 23.5 79 2.7 WSW 37 46 20 25 1005.3 - 0.0
24/03:00am 27.6 26.0 23.2 77 3.0 WSW 37 43 20 23 1005.4 1005.2 0.0
24/02:30am 27.4 25.6 23.0 77 3.0 WSW 37 43 20 23 1005.5 - 0.0
24/02:00am 27.6 26.0 23.2 77 3.0 WSW 37 43 20 23 1005.8 - 0.0
24/01:30am 27.7 25.6 23.1 76 3.1 WSW 39 46 21 25 1006.1 - 0.0
24/01:00am 27.8 25.8 23.2 76 3.1 WSW 39 46 21 25 1006.3 - 0.0
24/12:30am 28.1 26.1 23.9 78 2.9 WSW 41 46 22 25 1006.5 - 0.0
24/12:00am 28.1 26.0 23.7 77 3.0 WSW 41 44 22 24 1006.6 1006.4 0.0
 
Date/Time
WST
Temp
°C
App
Temp
°C
Dew
Point
°C
Rel
Hum
%
Delta-T
°C
Wind Press
QNH
hPa
Press
MSL
hPa
Rain since
9am
mm
Dir  Spd
km/h
Gust
km/h
Spd
kts
Gust
kts
23/11:30pm 28.2 26.1 23.8 77 3.0 WSW 41 46 22 25 1006.9 - 0.0
23/11:00pm 28.3 25.6 23.7 76 3.2 WSW 44 50 24 27 1006.8 - 0.0
23/10:30pm 28.3 26.2 23.7 76 3.2 WSW 41 46 22 25 1006.6 - 0.0
23/10:00pm 28.5 27.0 24.1 77 3.0 WSW 39 46 21 25 1006.6 - 0.0
23/09:30pm 28.5 26.6 24.1 77 3.0 WSW 41 48 22 26 1006.3 - 0.0
23/09:00pm 28.4 26.0 23.8 76 3.2 WSW 43 50 23 27 1006.1 1005.9 0.0
23/08:30pm 28.5 26.1 23.9 76 3.2 W 43 48 23 26 1005.8 - 0.0
23/08:00pm 28.6 26.6 23.3 73 3.6 WSW 39 46 21 25 1005.6 - 0.0
23/07:30pm 29.1 27.4 23.8 73 3.7 WSW 39 44 21 24 1005.2 - 0.0
23/07:00pm 29.4 27.2 23.6 71 4.0 W 41 46 22 25 1005.0 - 0.0
23/06:30pm 29.7 27.5 23.6 69 4.2 WSW 41 48 22 26 1005.0 - 0.0
23/06:00pm 29.9 27.9 23.3 67 4.6 W 39 48 21 26 1004.7 1004.5 0.0
23/05:30pm 29.9 27.2 23.3 67 4.5 W 43 50 23 27 1004.4 - 0.0
23/05:00pm 29.6 26.5 22.6 66 4.8 W 43 50 23 27 1004.4 - 0.0
23/04:30pm 30.0 27.3 22.7 65 5.0 W 41 48 22 26 1004.5 - 0.0
23/04:00pm 30.1 27.9 22.8 65 5.0 W 39 46 21 25 1004.5 - 0.0
23/03:30pm 30.0 26.5 21.9 62 5.5 W 43 50 23 27 1004.5 - 0.0
23/03:00pm 30.1 26.5 22.0 62 5.5 W 44 52 24 28 1004.6 1004.4 0.0
23/02:30pm 30.6 26.7 21.1 57 6.4 W 43 50 23 27 1004.6 - 0.0
23/02:00pm 30.7 27.5 21.8 59 6.0 W 41 46 22 25 1004.6 - 0.0
23/01:30pm 31.1 29.1 21.9 58 6.2 WSW 35 43 19 23 1004.7 - 0.0
23/01:00pm 30.2 27.2 19.9 54 6.8 SW 35 39 19 21 1004.8 - 0.0
23/12:30pm 29.9 27.3 20.7 57 6.1 SW 35 41 19 22 1004.9 - 0.0
23/12:00pm 29.9 26.9 19.9 55 6.6 SW 35 41 19 22 1005.1 1004.9 0.0
23/11:30am 29.6 26.3 19.3 54 6.7 WSW 35 43 19 23 1005.2 - 0.0
23/11:00am 29.7 26.2 20.5 57 6.1 WSW 39 46 21 25 1005.4 - 0.0
23/10:30am 29.0 25.0 20.2 59 5.8 WSW 41 46 22 25 1005.4 - 0.0
23/10:00am 28.4 24.4 20.9 64 5.0 WSW 43 50 23 27 1005.1 - 0.0
23/09:30am 27.7 23.2 21.0 67 4.4 WSW 46 52 25 28 1004.8 - 0.0
23/09:00am 27.5 23.2 20.8 67 4.4 WSW 44 52 24 28 1004.8 1004.6 0.0
23/08:30am 27.1 23.2 21.4 71 3.8 WSW 44 54 24 29 1004.6 - 0.0
23/08:00am 26.8 23.6 21.8 74 3.3 WSW 41 46 22 25 1004.5 - 0.0
23/07:30am 27.1 24.4 22.7 77 3.0 SW 41 52 22 28 1004.2 - 0.0
23/07:00am 26.8 24.0 22.4 77 3.0 SW 41 48 22 26 1004.0 - 0.0
23/06:30am 26.7 23.3 22.1 76 3.1 SW 43 52 23 28 1003.5 - 0.0
23/06:00am 27.4 24.4 23.2 78 2.9 SW 44 54 24 29 1003.1 1002.9 0.0
23/05:30am 27.4 24.0 23.2 78 2.9 SW 46 54 25 29 1002.8 - 0.0
23/05:00am 27.5 24.4 23.7 80 2.6 SW 46 54 25 29 1002.3 - 0.0
23/04:30am 27.5 24.1 23.7 80 2.6 SW 48 56 26 30 1002.2 - 0.0
23/04:00am 27.6 25.2 24.2 82 2.4 SW 44 52 24 28 1002.3 - 0.0
23/03:30am 27.7 24.4 23.9 80 2.6 SW 48 57 26 31 1001.9 - 0.0
23/03:00am 27.6 24.6 23.8 80 2.6 SW 46 56 25 30 1002.3 - 0.0
23/02:30am 27.8 25.6 24.2 81 2.5 SW 43 50 23 27 1002.2 - 0.0
23/02:00am 27.5 25.0 23.7 80 2.6 SW 43 50 23 27 1002.5 - 0.0
23/01:30am 27.7 24.4 23.9 80 2.6 WSW 48 56 26 30 1002.6 - 0.0
23/01:00am 27.7 25.0 23.3 77 3.0 SW 43 52 23 28 1003.0 - 0.0
23/12:30am 28.3 26.2 24.7 81 2.5 WSW 44 54 24 29 1002.8 - 0.0
23/12:00am 28.4 25.5 24.6 80 2.7 WSW 48 56 26 30 1003.1 1002.9 0.0
 
Date/Time
WST
Temp
°C
App
Temp
°C
Dew
Point
°C
Rel
Hum
%
Delta-T
°C
Wind Press
QNH
hPa
Press
MSL
hPa
Rain since
9am
mm
Dir  Spd
km/h
Gust
km/h
Spd
kts
Gust
kts
22/11:30pm 28.4 26.1 24.4 79 2.8 WSW 44 52 24 28 1003.6 - 0.0
22/11:00pm 28.4 27.6 24.0 77 3.0 WSW 35 43 19 23 1004.1 - 0.0
22/10:30pm 28.4 26.2 23.5 75 3.4 WSW 41 46 22 25 1003.8 - 0.0
22/10:00pm 28.7 26.0 24.3 77 3.1 WSW 46 54 25 29 1003.3 - 0.0
22/09:30pm 28.8 26.3 24.6 78 2.9 W 46 52 25 28 1003.0 - 0.0
22/09:00pm 28.9 26.5 23.8 74 3.5 W 43 50 23 27 1002.9 1002.7 0.0
22/08:30pm 29.3 26.6 23.7 72 3.9 W 44 52 24 28 1002.5 - 0.0
22/08:00pm 29.4 26.8 22.9 68 4.4 W 41 48 22 26 1002.0 - 0.0
22/07:30pm 30.0 28.0 23.2 67 4.7 W 39 48 21 26 1001.6 - 0.0
22/07:00pm 30.2 27.7 23.1 65 4.9 W 41 48 22 26 1001.3 - 0.0
22/06:00pm 30.8 29.7 23.5 65 5.1 W 35 - 19 - - 1001.5 -
22/05:30pm 30.8 30.1 23.2 64 5.2 W 32 39 17 21 1002.0 - 0.0
22/05:00pm 30.8 29.6 22.7 62 5.5 W 33 39 18 21 1002.3 - 0.0
22/04:30pm 31.1 30.6 23.5 64 5.3 W 32 39 17 21 1002.5 - 0.0
22/04:00pm 31.7 31.5 24.0 63 5.4 W 32 35 17 19 1002.6 - 0.0
22/03:44pm 32.2 32.7 24.0 62 5.7 W 28 33 15 18 1002.8 - 0.0
22/03:30pm 31.7 35.6 24.3 65 5.2 SW 11 13 6 7 1003.2 - 0.0
22/03:00pm 31.7 34.9 24.3 65 5.2 SSW 15 17 8 9 1003.6 1003.4 0.0
22/02:30pm 32.0 36.0 25.1 67 4.9 SW 13 15 7 8 1003.9 - 0.0
22/02:00pm 32.2 37.1 25.8 69 4.6 WSW 11 19 6 10 1004.5 - 0.0
22/01:30pm 30.5 33.6 24.2 69 4.4 SW 15 17 8 9 1004.9 - 0.0
22/01:00pm 30.6 32.9 23.5 66 4.9 SSW 17 19 9 10 1005.0 - 0.0
22/12:30pm 32.3 35.7 24.6 64 5.4 S 15 20 8 11 1005.5 - 0.0
22/12:00pm 31.7 34.7 24.0 63 5.4 S 15 19 8 10 1005.6 - 0.0
22/11:30am 31.4 34.2 24.3 66 5.0 S 17 20 9 11 1005.6 - 0.0
22/11:00am 31.2 33.9 24.8 69 4.5 S 19 22 10 12 1005.7 - 0.0
22/10:30am 31.0 33.9 25.4 72 4.0 SSW 20 26 11 14 1006.0 - 0.0
22/10:00am 30.8 33.8 24.7 70 4.3 SSW 17 22 9 12 1006.0 - 0.0
22/09:30am 30.1 35.1 26.0 78 2.9 SW 11 13 6 7 1005.9 - 0.0
22/09:00am 29.9 34.6 26.1 80 2.7 WSW 13 15 7 8 1005.9 1005.7 0.0
22/08:30am 29.2 32.5 26.0 83 2.3 SW 20 22 11 12 1005.7 - 0.0
22/08:00am 29.2 32.8 26.2 84 2.1 WSW 19 22 10 12 1005.6 - 0.0
22/07:30am 29.1 32.9 26.5 86 1.9 WSW 19 20 10 11 1005.7 - 0.0
22/07:00am 29.3 33.6 26.7 86 1.9 WSW 17 19 9 10 1005.5 - 0.0
22/06:30am 29.2 33.6 26.2 84 2.1 W 15 17 8 9 1005.0 - 0.0
22/06:00am 29.3 34.2 25.9 82 2.4 W 11 13 6 7 1004.7 1004.5 0.0
22/05:00am 28.9 32.1 25.5 82 2.4 NW 19 22 10 12 1004.3 - 0.0
22/04:30am 28.7 31.9 25.9 85 2.0 NW 20 24 11 13 1003.8 - 0.0
22/04:00am 28.6 32.0 25.8 85 2.0 NNW 19 20 10 11 1003.7 - 0.0
22/03:30am 29.1 32.9 25.9 83 2.3 NNW 17 22 9 12 1003.8 - 0.0
22/03:00am 28.8 31.5 24.8 79 2.8 N 19 20 10 11 1003.7 1003.5 0.0
22/02:30am 28.7 31.8 25.7 84 2.1 N 20 24 11 13 1003.7 - 0.0
22/02:00am 28.9 31.5 24.9 79 2.8 N 20 30 11 16 1004.2 - 0.0
22/01:30am 28.7 29.1 23.8 75 3.4 NNE 28 35 15 19 1004.7 - 0.0
22/01:00am 28.2 28.6 23.8 77 3.0 NE 28 37 15 20 1005.2 - 0.0
22/12:30am 28.5 29.7 23.9 76 3.2 NE 24 28 13 15 1005.5 - 0.0
22/12:00am 28.1 28.1 23.0 74 3.5 ENE 28 39 15 21 1005.7 1005.5 0.0
 
Date/Time
WST
Temp
°C
App
Temp
°C
Dew
Point
°C
Rel
Hum
%
Delta-T
°C
Wind Press
QNH
hPa
Press
MSL
hPa
Rain since
9am
mm
Dir  Spd
km/h
Gust
km/h
Spd
kts
Gust
kts
21/11:56pm 28.0 28.0 23.1 74 3.3 ENE 28 39 15 21 1005.7 - 0.0
21/11:30pm 28.2 25.3 24.0 78 2.9 E 46 54 25 29 1006.7 - 0.0
21/11:00pm 29.2 29.4 24.7 77 3.1 ESE 32 37 17 20 1006.7 - 0.0
21/10:30pm 29.1 28.7 25.3 80 2.7 ESE 37 46 20 25 1006.7 - 0.0
21/10:14pm 28.8 26.2 23.9 75 3.4 SE 44 57 24 31 1006.8 - 0.0
21/10:00pm 30.2 34.8 26.6 81 2.6 SE 15 19 8 10 1006.7 - 0.0
21/09:30pm 30.7 36.3 25.8 75 3.5 W 7 9 4 5 1006.2 - 0.0
21/09:00pm 30.8 36.3 25.6 74 3.7 WNW 7 9 4 5 1005.8 1005.6 0.0
21/08:30pm 31.1 36.3 25.7 73 3.8 WNW 9 13 5 7 1005.3 - 0.0
21/08:00pm 31.0 35.7 25.6 73 3.8 WNW 11 15 6 8 1005.0 - 0.0
21/07:30pm 31.1 35.2 25.2 71 4.2 NW 13 17 7 9 1004.7 - 0.0
21/07:00pm 31.7 35.6 25.5 69 4.4 WNW 15 17 8 9 1004.3 - 0.0
21/06:30pm 33.3 37.4 26.3 66 5.0 WNW 17 19 9 10 1003.9 - 0.0
21/06:00pm 33.2 37.1 25.5 64 5.5 WNW 15 19 8 10 1003.6 1003.4 0.0

Other formats

Comma delimited format used in spreadsheet applications
http://www.bom.gov.au/fwo/IDW60801/IDW60801.95303.axf

JavaScript Object Notation format (JSON) in row-major order
http://www.bom.gov.au/fwo/IDW60801/IDW60801.95303.json

Data quality

Most of these data are generated automatically and are frequently updated. Quality checks on data are not normally performed. It is possible for incorrect values to appear. Refer to information at About Latest Weather Observations and please check the disclaimer before using these data.